KDAY/DAY METAR and TAF weather

Enter ICAO airport designator
Station Type Date Time Source
KDAY METAR 2022/06/28 14:56 UTC NOAA

KDAY 281456Z 11004KT 10SM BKN250 21/08 A3029 RMK AO2 SLP252 T02110078 53005


Station Type Date Time Source
KDAY Decoded METAR 2022/06/28 14:56 UTC NOAA

COX DAYTON INTERNATIONAL, OH, United States (KDAY) 39-54N 084-13W 305M
Jun 28, 2022 - 10:56 AM EDT / 2022.06.28 1456 UTC
Wind: from the ESE (110 degrees) at 5 MPH (4 KT):0
Visibility: 10 mile(s):0
Sky conditions: mostly cloudy
Temperature: 70.0 F (21.1 C)
Dew Point: 46.0 F (7.8 C)
Relative Humidity: 42%
Pressure (altimeter): 30.29 in. Hg (1025 hPa)
Pressure tendency: 0.01 inches (0.5 hPa) higher than three hours ago
ob: KDAY 281456Z 11004KT 10SM BKN250 21/08 A3029 RMK AO2 SLP252 T02110078 53005
cycle: 15

Station Type Date Time Source
KDAY TAF 2022/06/28 12:24 UTC NOAA

TAF KDAY 281121Z 2812/2912 VRB04KT P6SM SCT250

Example: see airport list